Accueil
METAR-TAF:

METAR-TAF

Aéroports :

Aéroport João Paulo II

Ponta Delgada, Açores, Portugal

latitude: 37-44N, longitude: 025-42W, altitude: 71 m

Observation

Le bulletin a été fait il y a 37 minutes, à 18:30 UTC
Vent 9 kt de nord-est, variant entre nord et est
Température 25°C
Humidité 69%
Pression 1025 hPa
Visibilité 10 km ou plus
Quelques nuages à une hauteur de 2000 ft
Quelques nuages à une hauteur de 2200 ft, Cumulus congestus.

METAR: LPPD 191830Z 05009KT 360V100 9999 FEW020 FEW022TCU 25/19 Q1025

Heure: 19:07 (19:07 UTC)

Prévision

Le bulletin a été fait il y a 2 heures et 7 minutes, à 17:00 UTC
Prévision valable du 19 à 18 UTC au 20 à 18 UTC
Vent 12 kt de nord/nord-est
Visibilité 10 km ou plus
Quelques nuages à une hauteur de 2500 ft
Temporairement
du 19 à 18 UTC au 20 à 18 UTC
Nuages épars à une hauteur de 2000 ft
Nuages épars à une hauteur de 4000 ft

TAF: LPPD 191700Z 1918/2018 03012KT 9999 FEW025 TEMPO 1918/2018 SCT020 SCT040

Observations et prévisions météorologiques de plus de 4000 aéroports (messages METAR et TAF).

Les stations disponibles sont représentées par des disques jaunes et rouges sur la carte.

Passer la souris dessus pour voir le nom de la station.

Cliquer dessus pour voir les observations et prévisions météorologiques.

Pour changer de carte: cliquez sur les boutons verts avec une croix noire pour zoomer, sur le bouton vert avec un tiret pour effectuer un zoom arrière, ou sur les flèches vertes pour les cartes adjacentes.


METAR-TAF: